createdAt,value
2019-04-07T00:00:49.290Z,93553.35
2019-04-07T00:03:19.526Z,93551.44
2019-04-07T00:05:49.442Z,93549.84
2019-04-07T00:08:19.031Z,93547.23
2019-04-07T00:10:50.507Z,93545.61
2019-04-07T00:13:20.038Z,93545.45
2019-04-07T00:15:49.951Z,93534.44
2019-04-07T00:18:19.536Z,93548.15
2019-04-07T00:20:50.193Z,93543.34
2019-04-07T00:23:20.042Z,93540.77
2019-04-07T00:25:49.641Z,93553.73
2019-04-07T00:28:19.635Z,93559.39
2019-04-07T00:30:51.283Z,93555.50
2019-04-07T00:33:20.842Z,93548.70
2019-04-07T00:35:50.921Z,93548.05
2019-04-07T00:38:20.406Z,93549.19
2019-04-07T00:40:50.764Z,93549.53
2019-04-07T00:43:20.901Z,93552.43
2019-04-07T00:45:51.192Z,93547.42
2019-04-07T00:48:21.177Z,93544.16
2019-04-07T00:50:52.002Z,93558.09
2019-04-07T00:53:22.035Z,93555.03
2019-04-07T00:55:51.588Z,93555.20
2019-04-07T00:58:21.467Z,93549.50
2019-04-07T01:00:51.261Z,93547.58
2019-04-07T01:03:20.780Z,93549.19
2019-04-07T01:05:50.272Z,93545.80
2019-04-07T01:08:19.765Z,93556.97
2019-04-07T01:10:49.265Z,93552.42
2019-04-07T01:13:18.757Z,93548.69
2019-04-07T01:15:48.425Z,93553.22
2019-04-07T01:18:18.201Z,93557.75
2019-04-07T01:20:48.418Z,93560.84
2019-04-07T01:23:18.206Z,93563.07
2019-04-07T01:25:47.848Z,93563.90
2019-04-07T01:28:17.342Z,93571.52
2019-04-07T01:30:46.958Z,93570.06
2019-04-07T01:33:16.421Z,93562.13
2019-04-07T01:35:49.358Z,93565.51
2019-04-07T01:38:17.965Z,93568.41
2019-04-07T01:41:01.050Z,93565.06
2019-04-07T01:43:38.194Z,93566.99
2019-04-07T01:46:09.858Z,93568.45
2019-04-07T01:48:43.704Z,93567.16
2019-04-07T01:51:14.867Z,93573.27
2019-04-07T01:53:49.681Z,93569.98
2019-04-07T01:56:21.017Z,93567.02
2019-04-07T01:58:59.370Z,93577.40
2019-04-07T02:01:31.229Z,93566.41
2019-04-07T02:04:02.974Z,93569.95
2019-04-07T02:06:39.956Z,93565.44
2019-04-07T02:09:29.043Z,93565.12
2019-04-07T02:12:10.458Z,93564.13
2019-04-07T02:14:41.977Z,93574.29
2019-04-07T02:17:14.681Z,93565.38
2019-04-07T02:20:01.343Z,93570.70
2019-04-07T02:22:48.305Z,93575.98
2019-04-07T02:25:19.908Z,93571.80
2019-04-07T02:27:51.218Z,93575.98
2019-04-07T02:30:26.145Z,93569.86
2019-04-07T02:33:06.242Z,93580.67
2019-04-07T02:35:37.828Z,93583.57
2019-04-07T02:38:18.225Z,93575.34
2019-04-07T02:40:53.438Z,93576.94
2019-04-07T02:43:25.296Z,93577.72
2019-04-07T02:46:05.841Z,93582.72
2019-04-07T02:48:46.805Z,93582.25
2019-04-07T02:51:20.788Z,93578.03
2019-04-07T02:54:09.146Z,93578.17
2019-04-07T02:56:56.698Z,93573.47
2019-04-07T02:59:27.827Z,93572.69
2019-04-07T03:02:05.784Z,93569.97
2019-04-07T03:04:37.224Z,93571.78
2019-04-07T03:07:11.563Z,93579.28
2019-04-07T03:10:00.643Z,93583.78
2019-04-07T03:12:33.229Z,93574.11
2019-04-07T03:15:07.098Z,93588.53
2019-04-07T03:17:54.115Z,93593.38
2019-04-07T03:20:29.602Z,93600.47
2019-04-07T03:23:16.394Z,93607.01
2019-04-07T03:25:53.516Z,93601.50
2019-04-07T03:28:42.461Z,93602.39
2019-04-07T03:31:17.712Z,93603.25
2019-04-07T03:33:59.632Z,93609.87
2019-04-07T03:37:12.612Z,93614.69
2019-04-07T03:39:20.463Z,93614.22
2019-04-07T03:42:01.098Z,93612.69
2019-04-07T03:44:42.815Z,93607.05
2019-04-07T03:47:16.490Z,93607.88
2019-04-07T03:49:47.786Z,93608.55
2019-04-07T03:52:25.100Z,93615.20
2019-04-07T03:55:01.989Z,93609.34
2019-04-07T03:57:50.911Z,93611.10
2019-04-07T04:01:02.468Z,93605.11
2019-04-07T04:03:34.614Z,93603.52
2019-04-07T04:06:09.087Z,93602.35
2019-04-07T04:08:43.111Z,93600.46
2019-04-07T04:11:18.182Z,93600.25
2019-04-07T04:14:02.838Z,93603.11
2019-04-07T04:16:34.104Z,93608.89
2019-04-07T04:19:05.138Z,93613.92
2019-04-07T04:21:34.734Z,93616.18
2019-04-07T04:24:04.332Z,93614.20
2019-04-07T04:26:34.348Z,93616.45
2019-04-07T04:29:04.059Z,93619.80
2019-04-07T04:31:33.866Z,93626.74
2019-04-07T04:34:03.431Z,93630.02
2019-04-07T04:36:33.492Z,93633.95
2019-04-07T04:39:03.494Z,93639.94
2019-04-07T04:41:34.837Z,93645.61
2019-04-07T04:44:04.990Z,93649.44
2019-04-07T04:46:34.894Z,93657.59
2019-04-07T04:49:04.387Z,93659.36
2019-04-07T04:51:37.849Z,93663.40
2019-04-07T04:54:05.302Z,93662.47
2019-04-07T04:56:34.845Z,93661.42
2019-04-07T04:59:04.342Z,93660.69
2019-04-07T05:01:34.461Z,93662.40
2019-04-07T05:04:04.090Z,93662.78
2019-04-07T05:06:33.589Z,93658.14
2019-04-07T05:09:05.469Z,93661.13
2019-04-07T05:11:35.862Z,93661.20
2019-04-07T05:14:06.017Z,93657.67
2019-04-07T05:16:35.669Z,93660.47
2019-04-07T05:19:05.189Z,93657.06
2019-04-07T05:21:35.006Z,93657.69
2019-04-07T05:24:04.744Z,93651.50
2019-04-07T05:26:34.771Z,93649.78
2019-04-07T05:29:04.741Z,93656.12
2019-04-07T05:31:34.763Z,93647.92
2019-04-07T05:34:04.243Z,93646.85
2019-04-07T05:36:33.756Z,93649.11
2019-04-07T05:39:05.334Z,93653.45
2019-04-07T05:41:34.864Z,93662.34
2019-04-07T05:44:04.640Z,93665.78
2019-04-07T05:46:38.639Z,93665.97
2019-04-07T05:49:05.489Z,93667.10
2019-04-07T05:51:34.989Z,93666.95
2019-04-07T05:54:04.604Z,93671.98
2019-04-07T05:56:34.813Z,93662.09
2019-04-07T05:59:04.462Z,93666.28
2019-04-07T06:01:34.539Z,93664.94
2019-04-07T06:04:04.063Z,93660.23
2019-04-07T06:06:34.271Z,93660.17
2019-04-07T06:09:06.389Z,93661.27
2019-04-07T06:11:36.236Z,93663.83
2019-04-07T06:14:05.815Z,93671.88
2019-04-07T06:16:35.324Z,93669.45
2019-04-07T06:19:07.883Z,93668.95
2019-04-07T06:21:36.632Z,93668.38
2019-04-07T06:24:06.268Z,93673.94
2019-04-07T06:26:36.427Z,93674.93
2019-04-07T06:29:06.988Z,93671.05
2019-04-07T06:31:36.514Z,93670.67
2019-04-07T06:34:10.054Z,93673.59
2019-04-07T06:36:38.535Z,93671.92
2019-04-07T06:39:09.540Z,93672.09
2019-04-07T06:41:39.146Z,93665.88
2019-04-07T06:44:13.515Z,93664.20
2019-04-07T06:46:41.541Z,93667.55
2019-04-07T06:49:21.935Z,93674.91
2019-04-07T06:52:02.945Z,93677.48
2019-04-07T06:54:50.064Z,93671.86
2019-04-07T06:57:26.782Z,93669.47
2019-04-07T07:00:12.807Z,93665.91
2019-04-07T07:02:45.434Z,93671.31
2019-04-07T07:05:35.000Z,93670.65
2019-04-07T07:08:12.647Z,93669.51
2019-04-07T07:10:50.798Z,93673.53
2019-04-07T07:13:32.413Z,93669.11
2019-04-07T07:16:09.599Z,93667.97
2019-04-07T07:18:43.670Z,93675.80
2019-04-07T07:21:31.527Z,93667.77
2019-04-07T07:24:01.217Z,93675.13
2019-04-07T07:26:35.102Z,93675.11
2019-04-07T07:29:02.074Z,93670.10
2019-04-07T07:31:31.656Z,93675.53
2019-04-07T07:34:01.185Z,93678.11
2019-04-07T07:36:30.710Z,93680.39
2019-04-07T07:39:02.201Z,93677.53
2019-04-07T07:41:31.586Z,93681.22
2019-04-07T07:44:03.626Z,93679.12
2019-04-07T07:46:32.430Z,93676.78
2019-04-07T07:49:02.192Z,93668.68
2019-04-07T07:51:31.852Z,93669.61
2019-04-07T07:54:02.123Z,93675.47
2019-04-07T07:56:31.705Z,93671.80
2019-04-07T07:59:01.779Z,93673.52
2019-04-07T08:01:32.247Z,93679.99
2019-04-07T08:04:02.018Z,93683.16
2019-04-07T08:06:31.749Z,93682.00
2019-04-07T08:09:11.983Z,93686.36
2019-04-07T08:11:34.396Z,93681.68
2019-04-07T08:14:03.851Z,93676.77
2019-04-07T08:16:33.574Z,93680.03
2019-04-07T08:19:03.859Z,93681.11
2019-04-07T08:21:33.736Z,93685.88
2019-04-07T08:24:03.649Z,93680.05
2019-04-07T08:26:33.341Z,93696.93
2019-04-07T08:29:05.753Z,93692.50
2019-04-07T08:31:34.868Z,93692.39
2019-04-07T08:34:04.653Z,93691.98
2019-04-07T08:36:34.777Z,93701.20
2019-04-07T08:39:18.528Z,93695.58
2019-04-07T08:41:40.656Z,93699.59
2019-04-07T08:44:09.370Z,93697.93
2019-04-07T08:46:41.744Z,93700.48
2019-04-07T08:49:10.173Z,93698.58
2019-04-07T08:51:40.407Z,93708.42
2019-04-07T08:54:09.969Z,93705.68
2019-04-07T08:56:39.464Z,93712.55
2019-04-07T08:59:12.123Z,93706.43
2019-04-07T09:01:40.495Z,93710.14
2019-04-07T09:04:10.037Z,93708.19
2019-04-07T09:06:39.682Z,93708.81
2019-04-07T09:09:09.953Z,93711.03
2019-04-07T09:11:41.230Z,93706.89
2019-04-07T09:14:10.918Z,93709.94
2019-04-07T09:16:58.404Z,93699.73
2019-04-07T09:19:30.958Z,93708.27
2019-04-07T09:22:10.625Z,93711.52
2019-04-07T09:24:41.767Z,93712.53
2019-04-07T09:27:17.117Z,93706.49
2019-04-07T09:29:58.797Z,93714.09
2019-04-07T09:32:46.046Z,93712.33
2019-04-07T09:35:33.442Z,93713.81
2019-04-07T09:38:08.109Z,93714.13
2019-04-07T09:40:55.973Z,93713.53
2019-04-07T09:43:43.921Z,93706.44
2019-04-07T09:46:31.172Z,93710.22
2019-04-07T09:49:17.075Z,93711.25
2019-04-07T09:52:00.043Z,93724.30
2019-04-07T09:54:31.205Z,93718.52
2019-04-07T09:57:05.057Z,93713.98
2019-04-07T09:59:52.452Z,93710.87
2019-04-07T10:02:30.761Z,93708.66
2019-04-07T10:05:03.357Z,93705.45
2019-04-07T10:07:34.888Z,93696.13
2019-04-07T10:10:14.889Z,93696.93
2019-04-07T10:13:02.087Z,93699.31
2019-04-07T10:15:31.679Z,93704.35
2019-04-07T10:18:08.785Z,93699.31
2019-04-07T10:20:52.053Z,93703.09
2019-04-07T10:23:40.292Z,93707.20
2019-04-07T10:26:16.989Z,93700.68
2019-04-07T10:28:57.785Z,93700.59
2019-04-07T10:31:31.692Z,93704.33
2019-04-07T10:34:19.091Z,93707.38
2019-04-07T10:36:51.019Z,93699.39
2019-04-07T10:39:38.156Z,93695.97
2019-04-07T10:42:25.542Z,93696.65
2019-04-07T10:45:00.871Z,93689.47
2019-04-07T10:47:46.630Z,93691.78
2019-04-07T10:50:24.611Z,93691.06
2019-04-07T10:53:02.812Z,93689.84
2019-04-07T10:55:38.060Z,93692.47
2019-04-07T10:58:15.238Z,93689.50
2019-04-07T11:00:49.375Z,93699.23
2019-04-07T11:03:30.224Z,93696.61
2019-04-07T11:06:17.012Z,93701.20
2019-04-07T11:08:49.017Z,93694.69
2019-04-07T11:11:36.084Z,93696.30
2019-04-07T11:14:17.355Z,93699.03
2019-04-07T11:17:04.838Z,93702.17
2019-04-07T11:19:36.517Z,93700.50
2019-04-07T11:22:23.683Z,93699.23
2019-04-07T11:25:09.756Z,93696.53
2019-04-07T11:27:50.421Z,93696.80
2019-04-07T11:30:27.512Z,93695.67
2019-04-07T11:32:57.538Z,93689.05
2019-04-07T11:35:32.955Z,93688.64
2019-04-07T11:38:13.568Z,93680.86
2019-04-07T11:40:50.927Z,93682.52
2019-04-07T11:43:31.494Z,93671.69
2019-04-07T11:46:03.361Z,93680.25
2019-04-07T11:48:35.101Z,93670.41
2019-04-07T11:51:09.595Z,93676.28
2019-04-07T11:53:56.596Z,93676.78
2019-04-07T11:56:28.562Z,93674.64
2019-04-07T11:59:09.169Z,93682.07
2019-04-07T12:01:41.939Z,93672.26
2019-04-07T12:04:22.778Z,93677.45
2019-04-07T12:07:11.096Z,93673.98
2019-04-07T12:09:57.111Z,93669.38
2019-04-07T12:12:31.179Z,93679.78
2019-04-07T12:15:02.312Z,93679.02
2019-04-07T12:17:49.186Z,93673.91
2019-04-07T12:20:36.541Z,93667.48
2019-04-07T12:23:15.913Z,93662.38
2019-04-07T12:25:46.097Z,93667.73
2019-04-07T12:28:19.107Z,93669.11
2019-04-07T12:30:59.925Z,93672.47
2019-04-07T12:33:44.047Z,93666.70
2019-04-07T12:36:15.180Z,93672.13
2019-04-07T12:38:45.090Z,93668.28
2019-04-07T12:41:23.416Z,93672.64
2019-04-07T12:43:57.727Z,93664.55
2019-04-07T12:46:30.044Z,93664.88
2019-04-07T12:49:06.797Z,93657.70
2019-04-07T12:51:47.236Z,93658.48
2019-04-07T12:54:34.251Z,93655.21
2019-04-07T12:57:21.968Z,93654.17
2019-04-07T13:00:03.151Z,93648.88
2019-04-07T13:02:53.810Z,93650.65
2019-04-07T13:05:39.900Z,93649.55
2019-04-07T13:08:11.045Z,93657.74
2019-04-07T13:10:46.007Z,93642.98
2019-04-07T13:13:31.645Z,93653.16
2019-04-07T13:16:01.206Z,93646.44
2019-04-07T13:18:48.552Z,93640.94
2019-04-07T13:21:24.845Z,93649.95
2019-04-07T13:24:03.631Z,93653.73
2019-04-07T13:26:50.041Z,93656.12
2019-04-07T13:29:30.160Z,93653.97
2019-04-07T13:32:18.781Z,93648.66
2019-04-07T13:34:49.952Z,93651.81
2019-04-07T13:37:36.734Z,93650.52
2019-04-07T13:40:13.197Z,93646.73
2019-04-07T13:42:56.653Z,93655.25
2019-04-07T13:45:44.612Z,93657.52
2019-04-07T13:48:29.094Z,93660.54
2019-04-07T13:51:00.386Z,93654.20
2019-04-07T13:53:34.342Z,93660.89
2019-04-07T13:56:12.330Z,93656.34
2019-04-07T13:58:44.316Z,93654.41
2019-04-07T14:01:24.227Z,93650.94
2019-04-07T14:04:12.045Z,93656.83
2019-04-07T14:06:45.034Z,93656.59
2019-04-07T14:09:32.489Z,93660.48
2019-04-07T14:12:14.259Z,93664.08
2019-04-07T14:14:45.723Z,93666.30
2019-04-07T14:17:18.146Z,93666.03
2019-04-07T14:19:49.854Z,93667.13
2019-04-07T14:22:23.371Z,93668.48
2019-04-07T14:25:07.974Z,93670.86
2019-04-07T14:27:47.660Z,93676.69
2019-04-07T14:30:19.179Z,93676.84
2019-04-07T14:33:02.334Z,93671.39
2019-04-07T14:35:39.166Z,93673.59
2019-04-07T14:38:11.069Z,93677.05
2019-04-07T14:40:45.677Z,93676.66
2019-04-07T14:43:17.695Z,93678.28
2019-04-07T14:45:54.637Z,93674.50
2019-04-07T14:48:33.726Z,93678.89
2019-04-07T14:51:05.858Z,93684.67
2019-04-07T14:53:53.081Z,93686.12
2019-04-07T14:56:40.846Z,93685.75
2019-04-07T14:59:13.065Z,93681.52
2019-04-07T15:01:44.733Z,93681.22
2019-04-07T15:04:14.456Z,93677.05
2019-04-07T15:06:45.974Z,93678.57
2019-04-07T15:09:22.772Z,93683.37
2019-04-07T15:11:53.905Z,93680.49
2019-04-07T15:14:23.424Z,93687.27
2019-04-07T15:16:53.511Z,93688.31
2019-04-07T15:19:23.421Z,93687.66
2019-04-07T15:21:54.975Z,93695.14
2019-04-07T15:24:24.186Z,93691.08
2019-04-07T15:26:54.123Z,93693.08
2019-04-07T15:29:24.269Z,93687.75
2019-04-07T15:31:54.450Z,93691.58
2019-04-07T15:34:24.200Z,93690.25
2019-04-07T15:36:53.875Z,93691.22
2019-04-07T15:39:25.675Z,93688.56
2019-04-07T15:41:55.529Z,93693.39
2019-04-07T15:44:25.901Z,93694.84
2019-04-07T15:46:57.474Z,93689.00
2019-04-07T15:49:28.253Z,93701.20
2019-04-07T15:51:59.331Z,93698.25
2019-04-07T15:54:29.654Z,93695.08
2019-04-07T15:57:00.022Z,93700.83
2019-04-07T15:59:30.328Z,93702.79
2019-04-07T16:02:01.242Z,93708.16
2019-04-07T16:04:30.819Z,93711.25
2019-04-07T16:07:00.346Z,93712.20
2019-04-07T16:09:39.703Z,93716.41
2019-04-07T16:12:01.742Z,93713.54
2019-04-07T16:14:32.050Z,93717.91
2019-04-07T16:17:04.135Z,93720.71
2019-04-07T16:19:38.167Z,93720.15
2019-04-07T16:22:04.345Z,93720.20
2019-04-07T16:24:34.718Z,93721.28
2019-04-07T16:27:06.707Z,93722.44
2019-04-07T16:29:36.440Z,93724.03
2019-04-07T16:32:06.290Z,93735.34
2019-04-07T16:34:39.023Z,93738.18
2019-04-07T16:37:07.055Z,93745.38
2019-04-07T16:39:37.461Z,93750.58
2019-04-07T16:42:07.175Z,93751.19
2019-04-07T16:44:41.830Z,93747.34
2019-04-07T16:47:17.801Z,93746.09
2019-04-07T16:49:43.629Z,93749.40
2019-04-07T16:52:10.651Z,93750.14
2019-04-07T16:54:43.464Z,93751.73
2019-04-07T16:57:11.392Z,93749.40
2019-04-07T16:59:43.445Z,93757.38
2019-04-07T17:02:14.423Z,93747.94
2019-04-07T17:04:43.607Z,93758.27
2019-04-07T17:07:15.696Z,93751.97
2019-04-07T17:09:44.672Z,93756.61
2019-04-07T17:12:15.004Z,93761.06
2019-04-07T17:14:44.881Z,93761.39
2019-04-07T17:17:18.282Z,93759.27
2019-04-07T17:19:45.764Z,93766.77
2019-04-07T17:22:16.886Z,93769.39
2019-04-07T17:24:47.721Z,93770.16
2019-04-07T17:27:18.259Z,93780.39
2019-04-07T17:29:52.582Z,93776.73
2019-04-07T17:32:19.918Z,93782.93
2019-04-07T17:34:49.811Z,93784.59
2019-04-07T17:37:20.079Z,93788.67
2019-04-07T17:39:51.475Z,93790.22
2019-04-07T17:42:25.607Z,93791.73
2019-04-07T17:44:59.856Z,93796.34
2019-04-07T17:47:38.088Z,93796.27
2019-04-07T17:50:12.621Z,93790.03
2019-04-07T17:52:44.114Z,93802.52
2019-04-07T17:55:27.635Z,93801.20
2019-04-07T17:58:10.147Z,93803.66
2019-04-07T18:00:42.189Z,93811.95
2019-04-07T18:03:14.191Z,93815.46
2019-04-07T18:06:01.752Z,93822.49
2019-04-07T18:08:45.311Z,93823.59
2019-04-07T18:11:30.120Z,93835.84
2019-04-07T18:14:02.125Z,93836.21
2019-04-07T18:16:40.785Z,93839.84
2019-04-07T18:19:15.254Z,93850.77
2019-04-07T18:21:52.414Z,93852.83
2019-04-07T18:24:26.079Z,93854.58
2019-04-07T18:26:54.900Z,93855.17
2019-04-07T18:29:29.553Z,93858.84
2019-04-07T18:32:14.518Z,93855.88
2019-04-07T18:34:58.742Z,93862.03
2019-04-07T18:37:31.168Z,93862.31
2019-04-07T18:40:04.791Z,93871.47
2019-04-07T18:42:35.005Z,93872.47
2019-04-07T18:45:18.962Z,93880.17
2019-04-07T18:47:55.858Z,93884.73
2019-04-07T18:50:25.029Z,93891.27
2019-04-07T18:53:03.696Z,93897.73
2019-04-07T18:55:35.357Z,93902.16
2019-04-07T18:58:18.329Z,93906.52
2019-04-07T19:00:57.407Z,93918.92
2019-04-07T19:03:37.424Z,93921.58
2019-04-07T19:06:18.072Z,93918.17
2019-04-07T19:08:58.455Z,93921.05
2019-04-07T19:11:37.348Z,93922.98
2019-04-07T19:14:31.579Z,93940.66
2019-04-07T19:16:50.833Z,93945.04
2019-04-07T19:19:30.473Z,93955.33
2019-04-07T19:22:10.992Z,93965.92
2019-04-07T19:24:46.285Z,93966.90
2019-04-07T19:27:21.262Z,93973.22
2019-04-07T19:29:55.688Z,93970.00
2019-04-07T19:32:27.153Z,93971.06
2019-04-07T19:35:13.376Z,93974.79
2019-04-07T19:38:00.442Z,93968.62
2019-04-07T19:40:34.298Z,93965.45
2019-04-07T19:43:12.531Z,93966.95
2019-04-07T19:45:55.245Z,93965.77
2019-04-07T19:48:42.719Z,93962.76
2019-04-07T19:51:30.603Z,93975.95
2019-04-07T19:54:02.477Z,93975.47
2019-04-07T19:56:37.188Z,93986.27
2019-04-07T19:59:10.013Z,93989.44
2019-04-07T20:01:44.396Z,93991.68
2019-04-07T20:04:18.534Z,93989.88
2019-04-07T20:07:00.558Z,93989.82
2019-04-07T20:09:45.171Z,93996.44
2019-04-07T20:12:16.260Z,94003.10
2019-04-07T20:15:08.780Z,94006.76
2019-04-07T20:17:40.930Z,94000.69
2019-04-07T20:20:24.392Z,94003.58
2019-04-07T20:23:06.318Z,94000.98
2019-04-07T20:25:41.059Z,94004.13
2019-04-07T20:28:15.301Z,94004.09
2019-04-07T20:30:51.730Z,94000.16
2019-04-07T20:33:31.412Z,93999.52
2019-04-07T20:36:00.010Z,94007.26
2019-04-07T20:38:46.988Z,94007.17
2019-04-07T20:41:18.158Z,94014.21
2019-04-07T20:43:51.285Z,94019.04
2019-04-07T20:46:24.018Z,94013.81
2019-04-07T20:48:53.965Z,94018.06
2019-04-07T20:51:34.066Z,94016.45
2019-04-07T20:54:05.597Z,94026.97
2019-04-07T20:56:45.879Z,94023.09
2019-04-07T20:59:31.438Z,94028.34
2019-04-07T21:02:07.100Z,94029.95
2019-04-07T21:04:36.344Z,94034.50
2019-04-07T21:07:05.645Z,94031.27
2019-04-07T21:09:42.509Z,94038.81
2019-04-07T21:12:32.274Z,94043.59
2019-04-07T21:15:16.151Z,94042.05
2019-04-07T21:17:36.369Z,94034.33
2019-04-07T21:20:24.237Z,94029.39
2019-04-07T21:23:14.068Z,94035.27
2019-04-07T21:25:46.836Z,94034.81
2019-04-07T21:28:20.421Z,94039.23
2019-04-07T21:30:51.601Z,94032.45
2019-04-07T21:33:23.613Z,94029.63
2019-04-07T21:36:10.456Z,94041.68
2019-04-07T21:38:43.278Z,94039.43
2019-04-07T21:41:30.717Z,94044.72
2019-04-07T21:44:03.008Z,94038.70
2019-04-07T21:46:44.023Z,94031.70
2019-04-07T21:49:17.826Z,94038.30
2019-04-07T21:51:48.209Z,94037.88
2019-04-07T21:54:22.640Z,94042.37
2019-04-07T21:56:53.989Z,94041.30
2019-04-07T21:59:28.471Z,94046.59
2019-04-07T22:02:15.856Z,94047.41
2019-04-07T22:04:54.062Z,94048.90
2019-04-07T22:07:23.964Z,94052.59
2019-04-07T22:09:55.126Z,94068.52
2019-04-07T22:12:28.691Z,94065.65
2019-04-07T22:14:56.144Z,94067.16
2019-04-07T22:17:25.749Z,94067.72
2019-04-07T22:19:55.220Z,94076.00
2019-04-07T22:22:26.594Z,94075.38
2019-04-07T22:24:56.017Z,94077.63
2019-04-07T22:27:27.567Z,94075.95
2019-04-07T22:29:59.779Z,94073.13
2019-04-07T22:32:29.165Z,94076.54
2019-04-07T22:35:02.615Z,94078.42
2019-04-07T22:37:30.256Z,94074.55
2019-04-07T22:40:02.066Z,94073.86
2019-04-07T22:42:31.030Z,94081.05
2019-04-07T22:45:00.540Z,94079.91
2019-04-07T22:47:30.036Z,94091.66
2019-04-07T22:50:02.526Z,94095.83
2019-04-07T22:52:30.794Z,94102.73
2019-04-07T22:55:03.621Z,94091.47
2019-04-07T22:57:31.554Z,94086.46
2019-04-07T23:00:01.068Z,94090.12
2019-04-07T23:02:30.589Z,94093.55
2019-04-07T23:05:00.834Z,94094.03
2019-04-07T23:07:30.365Z,94097.78
2019-04-07T23:10:00.467Z,94094.80
2019-04-07T23:12:29.948Z,94093.10
2019-04-07T23:14:59.460Z,94083.55
2019-04-07T23:17:28.953Z,94086.44
2019-04-07T23:19:58.864Z,94091.18
2019-04-07T23:22:28.438Z,94099.41
2019-04-07T23:24:57.956Z,94110.90
2019-04-07T23:27:27.668Z,94107.59
2019-04-07T23:29:57.211Z,94105.86
2019-04-07T23:32:27.482Z,94109.16
2019-04-07T23:34:57.650Z,94113.02
2019-04-07T23:37:27.123Z,94117.67
2019-04-07T23:39:56.645Z,94118.50
2019-04-07T23:42:26.386Z,94119.69
2019-04-07T23:44:56.029Z,94122.39
2019-04-07T23:47:25.848Z,94118.78
2019-04-07T23:49:55.362Z,94122.40
2019-04-07T23:52:25.157Z,94127.58
2019-04-07T23:54:54.644Z,94131.67
2019-04-07T23:57:24.207Z,94127.92
2019-04-07T23:59:54.104Z,94128.91
